Orani, Philippines
Current Conditions -  °F | °C
As of 3:00 AM on Wednesday 22 Oct 2014 (Local Time) from RPLB Reporting Station
Broken Clouds Broken Clouds  
Wind Chill: 77°   Ceiling: 30000
Heat Index: 78°   Visibility: 6mi
Dew Point: 73°   Wind: 5mph
Humidity: 89%   Direction: 60°ENE
Pressure: 29.83"   Gusts: NA
Location:  14.8°N, 120.54°E
Report Text: RPLB 211900Z 06004KT 9999 FEW020 SCT080 BKN300 25/23 Q1010 NOSIG RMK A2983
Loading
Personal Weather Stations






























Interactive Weather Map
Tropical Storm Tracking
New forecast layout! Learn more

10-Day Weather Forecast

Advertisements
Track Severe Weather on mobile